sensor_id;sensor_type;location;lat;lon;timestamp;P1;durP1;ratioP1;P2;durP2;ratioP2
75851;SDS011;64500;52.632;20.656;2023-02-28T00:00:12;61.50;;;25.80;;
75851;SDS011;64500;52.632;20.656;2023-02-28T00:02:59;53.50;;;25.20;;
75851;SDS011;64500;52.632;20.656;2023-02-28T00:05:26;55.00;;;24.60;;
75851;SDS011;64500;52.632;20.656;2023-02-28T00:07:54;49.60;;;24.20;;
75851;SDS011;64500;52.632;20.656;2023-02-28T00:10:22;50.00;;;25.50;;
75851;SDS011;64500;52.632;20.656;2023-02-28T00:12:50;54.70;;;26.10;;
75851;SDS011;64500;52.632;20.656;2023-02-28T00:15:18;55.30;;;25.80;;
75851;SDS011;64500;52.632;20.656;2023-02-28T00:17:44;55.10;;;26.20;;
75851;SDS011;64500;52.632;20.656;2023-02-28T00:20:12;53.60;;;25.90;;
75851;SDS011;64500;52.632;20.656;2023-02-28T00:22:39;55.10;;;25.60;;
75851;SDS011;64500;52.632;20.656;2023-02-28T00:25:08;51.60;;;26.20;;
75851;SDS011;64500;52.632;20.656;2023-02-28T00:27:36;50.20;;;25.90;;
75851;SDS011;64500;52.632;20.656;2023-02-28T00:30:04;60.00;;;27.10;;
75851;SDS011;64500;52.632;20.656;2023-02-28T00:32:31;52.60;;;25.60;;
75851;SDS011;64500;52.632;20.656;2023-02-28T00:35:00;53.30;;;25.80;;
75851;SDS011;64500;52.632;20.656;2023-02-28T00:37:26;50.40;;;24.90;;
75851;SDS011;64500;52.632;20.656;2023-02-28T00:39:53;56.70;;;27.60;;
75851;SDS011;64500;52.632;20.656;2023-02-28T00:42:19;56.00;;;27.40;;
75851;SDS011;64500;52.632;20.656;2023-02-28T00:44:46;53.90;;;25.90;;
75851;SDS011;64500;52.632;20.656;2023-02-28T00:47:12;55.60;;;27.00;;
75851;SDS011;64500;52.632;20.656;2023-02-28T00:49:39;53.20;;;27.30;;
75851;SDS011;64500;52.632;20.656;2023-02-28T00:52:06;53.10;;;28.00;;
75851;SDS011;64500;52.632;20.656;2023-02-28T00:54:32;54.40;;;27.10;;
75851;SDS011;64500;52.632;20.656;2023-02-28T00:56:59;53.60;;;26.90;;
75851;SDS011;64500;52.632;20.656;2023-02-28T00:59:25;60.50;;;28.10;;
75851;SDS011;64500;52.632;20.656;2023-02-28T01:01:52;52.70;;;27.10;;
75851;SDS011;64500;52.632;20.656;2023-02-28T01:04:18;49.10;;;26.60;;
75851;SDS011;64500;52.632;20.656;2023-02-28T01:06:45;54.90;;;27.10;;
75851;SDS011;64500;52.632;20.656;2023-02-28T01:09:11;49.10;;;26.60;;
75851;SDS011;64500;52.632;20.656;2023-02-28T01:11:38;57.70;;;28.40;;
75851;SDS011;64500;52.632;20.656;2023-02-28T01:14:06;54.20;;;26.80;;
75851;SDS011;64500;52.632;20.656;2023-02-28T01:16:33;65.50;;;28.70;;
75851;SDS011;64500;52.632;20.656;2023-02-28T01:19:00;56.00;;;27.70;;
75851;SDS011;64500;52.632;20.656;2023-02-28T01:21:26;54.80;;;28.00;;
75851;SDS011;64500;52.632;20.656;2023-02-28T01:23:53;51.90;;;29.00;;
75851;SDS011;64500;52.632;20.656;2023-02-28T01:26:24;63.50;;;28.20;;
75851;SDS011;64500;52.632;20.656;2023-02-28T01:28:51;54.20;;;28.20;;
75851;SDS011;64500;52.632;20.656;2023-02-28T01:31:18;50.10;;;28.40;;
75851;SDS011;64500;52.632;20.656;2023-02-28T01:33:46;49.60;;;27.70;;
75851;SDS011;64500;52.632;20.656;2023-02-28T01:36:14;58.20;;;28.50;;
75851;SDS011;64500;52.632;20.656;2023-02-28T01:38:43;45.10;;;26.60;;
75851;SDS011;64500;52.632;20.656;2023-02-28T01:41:12;49.60;;;26.80;;
75851;SDS011;64500;52.632;20.656;2023-02-28T01:46:10;49.60;;;27.10;;
75851;SDS011;64500;52.632;20.656;2023-02-28T01:48:40;50.00;;;26.20;;
75851;SDS011;64500;52.632;20.656;2023-02-28T01:51:24;49.30;;;26.80;;
75851;SDS011;64500;52.632;20.656;2023-02-28T01:54:05;45.30;;;25.50;;
75851;SDS011;64500;52.632;20.656;2023-02-28T01:56:41;49.90;;;26.90;;
75851;SDS011;64500;52.632;20.656;2023-02-28T01:59:14;52.90;;;27.30;;
75851;SDS011;64500;52.632;20.656;2023-02-28T02:01:46;49.20;;;26.70;;
75851;SDS011;64500;52.632;20.656;2023-02-28T02:04:12;50.60;;;26.10;;
75851;SDS011;64500;52.632;20.656;2023-02-28T02:06:41;55.40;;;28.30;;
75851;SDS011;64500;52.632;20.656;2023-02-28T02:09:10;46.40;;;27.10;;
75851;SDS011;64500;52.632;20.656;2023-02-28T02:11:39;53.50;;;27.40;;
75851;SDS011;64500;52.632;20.656;2023-02-28T02:17:21;53.80;;;27.60;;
75851;SDS011;64500;52.632;20.656;2023-02-28T02:20:26;46.10;;;26.50;;
75851;SDS011;64500;52.632;20.656;2023-02-28T02:29:07;51.50;;;27.20;;
75851;SDS011;64500;52.632;20.656;2023-02-28T02:37:36;51.10;;;27.50;;
75851;SDS011;64500;52.632;20.656;2023-02-28T02:43:53;48.50;;;25.90;;
75851;SDS011;64500;52.632;20.656;2023-02-28T02:48:48;47.40;;;26.60;;
75851;SDS011;64500;52.632;20.656;2023-02-28T02:51:20;51.00;;;27.00;;
75851;SDS011;64500;52.632;20.656;2023-02-28T02:53:50;52.50;;;27.60;;
75851;SDS011;64500;52.632;20.656;2023-02-28T02:56:23;49.50;;;26.60;;
75851;SDS011;64500;52.632;20.656;2023-02-28T02:58:53;54.40;;;26.80;;
75851;SDS011;64500;52.632;20.656;2023-02-28T03:01:25;48.00;;;26.40;;
75851;SDS011;64500;52.632;20.656;2023-02-28T03:04:00;50.20;;;26.50;;
75851;SDS011;64500;52.632;20.656;2023-02-28T03:06:28;52.50;;;26.40;;
75851;SDS011;64500;52.632;20.656;2023-02-28T03:08:55;48.30;;;26.40;;
75851;SDS011;64500;52.632;20.656;2023-02-28T03:11:22;48.00;;;27.00;;
75851;SDS011;64500;52.632;20.656;2023-02-28T03:22:08;47.50;;;26.00;;
75851;SDS011;64500;52.632;20.656;2023-02-28T03:27:22;45.50;;;25.40;;
75851;SDS011;64500;52.632;20.656;2023-02-28T03:30:00;42.90;;;23.80;;
75851;SDS011;64500;52.632;20.656;2023-02-28T03:32:37;43.90;;;25.00;;
75851;SDS011;64500;52.632;20.656;2023-02-28T03:37:42;44.00;;;25.40;;
75851;SDS011;64500;52.632;20.656;2023-02-28T03:40:15;46.20;;;25.10;;
75851;SDS011;64500;52.632;20.656;2023-02-28T03:42:47;44.70;;;25.00;;
75851;SDS011;64500;52.632;20.656;2023-02-28T03:45:23;40.60;;;24.60;;
75851;SDS011;64500;52.632;20.656;2023-02-28T03:48:05;43.30;;;25.20;;
75851;SDS011;64500;52.632;20.656;2023-02-28T03:50:41;46.00;;;24.80;;
75851;SDS011;64500;52.632;20.656;2023-02-28T03:53:13;41.20;;;24.20;;
75851;SDS011;64500;52.632;20.656;2023-02-28T03:55:45;43.60;;;25.00;;
75851;SDS011;64500;52.632;20.656;2023-02-28T04:01:04;43.30;;;24.80;;
75851;SDS011;64500;52.632;20.656;2023-02-28T04:03:36;45.00;;;23.70;;
75851;SDS011;64500;52.632;20.656;2023-02-28T04:06:06;41.90;;;23.20;;
75851;SDS011;64500;52.632;20.656;2023-02-28T04:08:35;44.90;;;23.50;;
75851;SDS011;64500;52.632;20.656;2023-02-28T04:11:15;39.30;;;23.00;;
75851;SDS011;64500;52.632;20.656;2023-02-28T04:13:47;43.50;;;24.00;;
75851;SDS011;64500;52.632;20.656;2023-02-28T04:16:15;41.80;;;23.50;;
75851;SDS011;64500;52.632;20.656;2023-02-28T04:18:43;39.00;;;22.30;;
75851;SDS011;64500;52.632;20.656;2023-02-28T04:21:11;43.00;;;23.30;;
75851;SDS011;64500;52.632;20.656;2023-02-28T04:23:39;43.40;;;23.40;;
75851;SDS011;64500;52.632;20.656;2023-02-28T04:26:07;37.80;;;21.90;;
75851;SDS011;64500;52.632;20.656;2023-02-28T04:28:34;36.20;;;21.70;;
75851;SDS011;64500;52.632;20.656;2023-02-28T04:31:01;39.80;;;22.70;;
75851;SDS011;64500;52.632;20.656;2023-02-28T04:33:30;41.20;;;22.30;;
75851;SDS011;64500;52.632;20.656;2023-02-28T04:36:03;39.00;;;21.60;;
75851;SDS011;64500;52.632;20.656;2023-02-28T04:38:34;38.00;;;21.70;;
75851;SDS011;64500;52.632;20.656;2023-02-28T04:41:03;36.10;;;21.10;;
75851;SDS011;64500;52.632;20.656;2023-02-28T04:43:32;37.20;;;21.20;;
75851;SDS011;64500;52.632;20.656;2023-02-28T04:46:00;37.90;;;21.40;;
75851;SDS011;64500;52.632;20.656;2023-02-28T04:48:30;33.90;;;20.50;;
75851;SDS011;64500;52.632;20.656;2023-02-28T04:51:04;38.80;;;20.60;;
75851;SDS011;64500;52.632;20.656;2023-02-28T04:53:34;37.20;;;21.90;;
75851;SDS011;64500;52.632;20.656;2023-02-28T04:56:03;36.10;;;20.40;;
75851;SDS011;64500;52.632;20.656;2023-02-28T04:58:30;36.50;;;20.60;;
75851;SDS011;64500;52.632;20.656;2023-02-28T05:01:04;37.50;;;20.70;;
75851;SDS011;64500;52.632;20.656;2023-02-28T05:03:42;35.60;;;20.80;;
75851;SDS011;64500;52.632;20.656;2023-02-28T05:06:10;34.50;;;20.80;;
75851;SDS011;64500;52.632;20.656;2023-02-28T05:08:39;34.80;;;20.10;;
75851;SDS011;64500;52.632;20.656;2023-02-28T05:11:11;34.90;;;20.40;;
75851;SDS011;64500;52.632;20.656;2023-02-28T05:13:46;37.40;;;20.60;;
75851;SDS011;64500;52.632;20.656;2023-02-28T05:16:14;36.20;;;19.90;;
75851;SDS011;64500;52.632;20.656;2023-02-28T05:18:41;34.60;;;20.70;;
75851;SDS011;64500;52.632;20.656;2023-02-28T05:21:22;36.10;;;20.70;;
75851;SDS011;64500;52.632;20.656;2023-02-28T05:23:51;34.80;;;19.80;;
75851;SDS011;64500;52.632;20.656;2023-02-28T05:26:18;36.80;;;20.60;;
75851;SDS011;64500;52.632;20.656;2023-02-28T05:28:45;35.00;;;19.90;;
75851;SDS011;64500;52.632;20.656;2023-02-28T05:31:12;36.40;;;20.80;;
75851;SDS011;64500;52.632;20.656;2023-02-28T05:33:39;34.70;;;19.50;;
75851;SDS011;64500;52.632;20.656;2023-02-28T05:36:07;36.20;;;19.90;;
75851;SDS011;64500;52.632;20.656;2023-02-28T05:38:34;36.40;;;19.70;;
75851;SDS011;64500;52.632;20.656;2023-02-28T05:41:04;35.50;;;19.60;;
75851;SDS011;64500;52.632;20.656;2023-02-28T05:43:32;38.50;;;20.10;;
75851;SDS011;64500;52.632;20.656;2023-02-28T05:45:59;33.50;;;19.40;;
75851;SDS011;64500;52.632;20.656;2023-02-28T05:48:28;33.10;;;18.20;;
75851;SDS011;64500;52.632;20.656;2023-02-28T05:50:54;35.90;;;19.40;;
75851;SDS011;64500;52.632;20.656;2023-02-28T05:53:23;34.80;;;19.90;;
75851;SDS011;64500;52.632;20.656;2023-02-28T05:55:50;35.60;;;18.70;;
75851;SDS011;64500;52.632;20.656;2023-02-28T05:58:17;34.40;;;20.00;;
75851;SDS011;64500;52.632;20.656;2023-02-28T06:00:43;37.30;;;18.70;;
75851;SDS011;64500;52.632;20.656;2023-02-28T06:03:09;32.40;;;18.80;;
75851;SDS011;64500;52.632;20.656;2023-02-28T06:05:36;31.70;;;18.90;;
75851;SDS011;64500;52.632;20.656;2023-02-28T06:08:02;35.70;;;19.40;;
75851;SDS011;64500;52.632;20.656;2023-02-28T06:10:29;31.70;;;19.00;;
75851;SDS011;64500;52.632;20.656;2023-02-28T06:12:55;32.40;;;18.40;;
75851;SDS011;64500;52.632;20.656;2023-02-28T06:15:28;33.90;;;19.50;;
75851;SDS011;64500;52.632;20.656;2023-02-28T06:17:55;34.50;;;19.70;;
75851;SDS011;64500;52.632;20.656;2023-02-28T06:20:25;31.90;;;18.20;;
75851;SDS011;64500;52.632;20.656;2023-02-28T06:22:57;33.00;;;17.70;;
75851;SDS011;64500;52.632;20.656;2023-02-28T06:25:25;30.60;;;17.90;;
75851;SDS011;64500;52.632;20.656;2023-02-28T06:27:53;30.10;;;16.60;;
75851;SDS011;64500;52.632;20.656;2023-02-28T06:30:23;30.30;;;17.40;;
75851;SDS011;64500;52.632;20.656;2023-02-28T06:32:52;31.90;;;18.30;;
75851;SDS011;64500;52.632;20.656;2023-02-28T06:35:19;31.10;;;17.30;;
75851;SDS011;64500;52.632;20.656;2023-02-28T06:37:46;30.40;;;17.70;;
75851;SDS011;64500;52.632;20.656;2023-02-28T06:40:13;30.90;;;17.30;;
75851;SDS011;64500;52.632;20.656;2023-02-28T06:42:40;30.10;;;17.50;;
75851;SDS011;64500;52.632;20.656;2023-02-28T06:45:08;30.30;;;16.80;;
75851;SDS011;64500;52.632;20.656;2023-02-28T06:47:44;38.10;;;17.60;;
75851;SDS011;64500;52.632;20.656;2023-02-28T06:50:13;119.20;;;22.40;;
75851;SDS011;64500;52.632;20.656;2023-02-28T06:52:40;116.80;;;21.80;;
75851;SDS011;64500;52.632;20.656;2023-02-28T06:55:14;109.50;;;22.40;;
75851;SDS011;64500;52.632;20.656;2023-02-28T06:57:41;108.40;;;24.40;;
75851;SDS011;64500;52.632;20.656;2023-02-28T07:00:09;110.20;;;23.10;;
75851;SDS011;64500;52.632;20.656;2023-02-28T07:02:36;123.20;;;23.90;;
75851;SDS011;64500;52.632;20.656;2023-02-28T07:05:04;126.10;;;23.10;;
75851;SDS011;64500;52.632;20.656;2023-02-28T07:07:33;405.40;;;35.30;;
75851;SDS011;64500;52.632;20.656;2023-02-28T07:10:02;382.00;;;35.50;;
75851;SDS011;64500;52.632;20.656;2023-02-28T07:12:28;283.50;;;28.10;;
75851;SDS011;64500;52.632;20.656;2023-02-28T07:14:55;372.10;;;32.40;;
75851;SDS011;64500;52.632;20.656;2023-02-28T07:17:23;348.30;;;32.40;;
75851;SDS011;64500;52.632;20.656;2023-02-28T07:19:49;278.70;;;28.70;;
75851;SDS011;64500;52.632;20.656;2023-02-28T07:22:16;294.30;;;28.30;;
75851;SDS011;64500;52.632;20.656;2023-02-28T07:24:42;253.00;;;24.40;;
75851;SDS011;64500;52.632;20.656;2023-02-28T07:27:09;199.80;;;22.50;;
75851;SDS011;64500;52.632;20.656;2023-02-28T07:29:36;163.60;;;20.20;;
75851;SDS011;64500;52.632;20.656;2023-02-28T07:32:04;202.60;;;20.30;;
75851;SDS011;64500;52.632;20.656;2023-02-28T07:34:31;190.30;;;20.30;;
75851;SDS011;64500;52.632;20.656;2023-02-28T07:36:58;107.90;;;18.00;;
75851;SDS011;64500;52.632;20.656;2023-02-28T07:39:26;123.60;;;16.20;;
75851;SDS011;64500;52.632;20.656;2023-02-28T07:41:52;79.70;;;13.10;;
75851;SDS011;64500;52.632;20.656;2023-02-28T07:44:19;122.60;;;14.60;;
75851;SDS011;64500;52.632;20.656;2023-02-28T07:46:45;58.60;;;11.80;;
75851;SDS011;64500;52.632;20.656;2023-02-28T07:49:11;46.30;;;10.10;;
75851;SDS011;64500;52.632;20.656;2023-02-28T07:51:38;56.40;;;11.20;;
75851;SDS011;64500;52.632;20.656;2023-02-28T07:54:04;36.50;;;8.90;;
75851;SDS011;64500;52.632;20.656;2023-02-28T07:56:30;51.50;;;9.50;;
75851;SDS011;64500;52.632;20.656;2023-02-28T07:58:57;28.80;;;9.80;;
75851;SDS011;64500;52.632;20.656;2023-02-28T08:01:23;30.40;;;9.70;;
75851;SDS011;64500;52.632;20.656;2023-02-28T08:03:49;40.90;;;10.00;;
75851;SDS011;64500;52.632;20.656;2023-02-28T08:06:18;66.70;;;10.80;;
75851;SDS011;64500;52.632;20.656;2023-02-28T08:08:46;56.20;;;10.20;;
75851;SDS011;64500;52.632;20.656;2023-02-28T08:11:14;94.00;;;12.40;;
75851;SDS011;64500;52.632;20.656;2023-02-28T08:13:41;57.70;;;10.50;;
75851;SDS011;64500;52.632;20.656;2023-02-28T08:16:09;84.50;;;14.30;;
75851;SDS011;64500;52.632;20.656;2023-02-28T08:18:37;74.30;;;12.40;;
75851;SDS011;64500;52.632;20.656;2023-02-28T08:21:07;95.90;;;13.80;;
75851;SDS011;64500;52.632;20.656;2023-02-28T08:23:34;139.40;;;14.70;;
75851;SDS011;64500;52.632;20.656;2023-02-28T08:26:01;116.00;;;14.40;;
75851;SDS011;64500;52.632;20.656;2023-02-28T08:28:29;101.50;;;13.80;;
75851;SDS011;64500;52.632;20.656;2023-02-28T08:30:56;93.70;;;13.10;;
75851;SDS011;64500;52.632;20.656;2023-02-28T08:33:22;62.30;;;13.80;;
75851;SDS011;64500;52.632;20.656;2023-02-28T08:35:52;86.20;;;14.20;;
75851;SDS011;64500;52.632;20.656;2023-02-28T08:38:22;86.90;;;13.10;;
75851;SDS011;64500;52.632;20.656;2023-02-28T08:40:48;75.70;;;13.50;;
75851;SDS011;64500;52.632;20.656;2023-02-28T08:43:15;57.20;;;12.10;;
75851;SDS011;64500;52.632;20.656;2023-02-28T08:45:41;52.60;;;12.50;;
75851;SDS011;64500;52.632;20.656;2023-02-28T08:48:08;55.50;;;12.00;;
75851;SDS011;64500;52.632;20.656;2023-02-28T08:50:34;55.20;;;12.90;;
75851;SDS011;64500;52.632;20.656;2023-02-28T08:53:00;467.00;;;32.70;;
75851;SDS011;64500;52.632;20.656;2023-02-28T08:55:27;308.70;;;25.50;;
75851;SDS011;64500;52.632;20.656;2023-02-28T08:57:53;254.00;;;22.40;;
75851;SDS011;64500;52.632;20.656;2023-02-28T09:00:21;177.20;;;18.80;;
75851;SDS011;64500;52.632;20.656;2023-02-28T09:02:48;120.20;;;15.70;;
75851;SDS011;64500;52.632;20.656;2023-02-28T09:05:15;102.60;;;13.60;;
75851;SDS011;64500;52.632;20.656;2023-02-28T09:07:41;108.90;;;16.00;;
75851;SDS011;64500;52.632;20.656;2023-02-28T09:10:08;59.50;;;11.40;;
75851;SDS011;64500;52.632;20.656;2023-02-28T09:12:35;42.10;;;10.00;;
75851;SDS011;64500;52.632;20.656;2023-02-28T09:15:02;39.50;;;10.20;;
75851;SDS011;64500;52.632;20.656;2023-02-28T09:17:28;34.10;;;10.20;;
75851;SDS011;64500;52.632;20.656;2023-02-28T09:19:55;25.70;;;10.30;;
75851;SDS011;64500;52.632;20.656;2023-02-28T09:22:21;28.40;;;9.20;;
75851;SDS011;64500;52.632;20.656;2023-02-28T09:24:47;20.50;;;8.80;;
75851;SDS011;64500;52.632;20.656;2023-02-28T09:27:13;19.30;;;9.70;;
75851;SDS011;64500;52.632;20.656;2023-02-28T09:29:40;26.90;;;8.90;;
75851;SDS011;64500;52.632;20.656;2023-02-28T09:32:07;29.80;;;9.80;;
75851;SDS011;64500;52.632;20.656;2023-02-28T09:34:33;31.80;;;10.00;;
75851;SDS011;64500;52.632;20.656;2023-02-28T09:37:00;32.70;;;9.80;;
75851;SDS011;64500;52.632;20.656;2023-02-28T09:39:26;39.80;;;9.90;;
75851;SDS011;64500;52.632;20.656;2023-02-28T09:41:52;52.30;;;10.00;;
75851;SDS011;64500;52.632;20.656;2023-02-28T09:50:49;35.40;;;9.60;;
75851;SDS011;64500;52.632;20.656;2023-02-28T09:53:15;48.20;;;10.30;;
75851;SDS011;64500;52.632;20.656;2023-02-28T09:55:48;55.60;;;10.90;;
75851;SDS011;64500;52.632;20.656;2023-02-28T09:58:23;45.30;;;10.30;;
75851;SDS011;64500;52.632;20.656;2023-02-28T10:00:57;52.60;;;11.40;;
75851;SDS011;64500;52.632;20.656;2023-02-28T10:03:30;51.80;;;10.70;;
75851;SDS011;64500;52.632;20.656;2023-02-28T10:06:13;59.10;;;11.30;;
75851;SDS011;64500;52.632;20.656;2023-02-28T10:08:45;54.20;;;10.60;;
75851;SDS011;64500;52.632;20.656;2023-02-28T10:11:15;51.10;;;11.70;;
75851;SDS011;64500;52.632;20.656;2023-02-28T10:14:00;81.00;;;14.50;;
75851;SDS011;64500;52.632;20.656;2023-02-28T10:16:35;104.90;;;14.80;;
75851;SDS011;64500;52.632;20.656;2023-02-28T10:27:23;109.70;;;15.70;;
75851;SDS011;64500;52.632;20.656;2023-02-28T10:29:52;105.20;;;14.50;;
75851;SDS011;64500;52.632;20.656;2023-02-28T10:32:21;108.60;;;14.80;;
75851;SDS011;64500;52.632;20.656;2023-02-28T10:35:21;78.80;;;13.70;;
75851;SDS011;64500;52.632;20.656;2023-02-28T10:37:49;107.20;;;16.00;;
75851;SDS011;64500;52.632;20.656;2023-02-28T10:43:00;131.60;;;18.40;;
75851;SDS011;64500;52.632;20.656;2023-02-28T10:45:28;136.30;;;21.40;;
75851;SDS011;64500;52.632;20.656;2023-02-28T10:48:01;115.50;;;17.40;;
75851;SDS011;64500;52.632;20.656;2023-02-28T10:50:35;103.20;;;15.70;;
75851;SDS011;64500;52.632;20.656;2023-02-28T10:53:16;162.10;;;16.70;;
75851;SDS011;64500;52.632;20.656;2023-02-28T10:55:59;111.90;;;16.30;;
75851;SDS011;64500;52.632;20.656;2023-02-28T11:07:19;88.70;;;16.20;;
75851;SDS011;64500;52.632;20.656;2023-02-28T11:09:51;138.60;;;17.40;;
75851;SDS011;64500;52.632;20.656;2023-02-28T11:12:37;155.70;;;18.10;;
75851;SDS011;64500;52.632;20.656;2023-02-28T11:15:26;209.80;;;20.80;;
75851;SDS011;64500;52.632;20.656;2023-02-28T11:20:40;114.90;;;16.00;;
75851;SDS011;64500;52.632;20.656;2023-02-28T11:23:10;130.70;;;15.90;;
75851;SDS011;64500;52.632;20.656;2023-02-28T11:25:38;117.50;;;15.40;;
75851;SDS011;64500;52.632;20.656;2023-02-28T11:28:06;138.80;;;15.80;;
75851;SDS011;64500;52.632;20.656;2023-02-28T11:33:48;111.20;;;14.20;;
75851;SDS011;64500;52.632;20.656;2023-02-28T11:38:55;109.40;;;15.30;;
75851;SDS011;64500;52.632;20.656;2023-02-28T11:44:41;132.10;;;16.60;;
75851;SDS011;64500;52.632;20.656;2023-02-28T11:50:16;148.10;;;16.00;;
75851;SDS011;64500;52.632;20.656;2023-02-28T11:53:14;113.90;;;14.30;;
75851;SDS011;64500;52.632;20.656;2023-02-28T12:06:34;142.90;;;18.90;;
75851;SDS011;64500;52.632;20.656;2023-02-28T12:17:12;99.70;;;16.80;;
75851;SDS011;64500;52.632;20.656;2023-02-28T12:28:34;119.10;;;15.70;;
75851;SDS011;64500;52.632;20.656;2023-02-28T12:31:09;141.80;;;17.70;;
75851;SDS011;64500;52.632;20.656;2023-02-28T12:33:45;158.90;;;19.30;;
75851;SDS011;64500;52.632;20.656;2023-02-28T12:36:14;133.60;;;18.20;;
75851;SDS011;64500;52.632;20.656;2023-02-28T12:38:55;132.80;;;16.60;;
75851;SDS011;64500;52.632;20.656;2023-02-28T12:41:42;136.70;;;18.30;;
75851;SDS011;64500;52.632;20.656;2023-02-28T12:44:15;119.60;;;17.30;;
75851;SDS011;64500;52.632;20.656;2023-02-28T12:46:51;163.10;;;20.50;;
75851;SDS011;64500;52.632;20.656;2023-02-28T12:52:04;169.00;;;18.10;;
75851;SDS011;64500;52.632;20.656;2023-02-28T13:00:04;180.40;;;20.80;;
75851;SDS011;64500;52.632;20.656;2023-02-28T13:05:09;202.70;;;21.50;;
75851;SDS011;64500;52.632;20.656;2023-02-28T13:08:15;200.90;;;20.10;;
75851;SDS011;64500;52.632;20.656;2023-02-28T13:11:06;231.30;;;21.70;;
75851;SDS011;64500;52.632;20.656;2023-02-28T13:13:33;216.20;;;19.90;;
75851;SDS011;64500;52.632;20.656;2023-02-28T13:16:07;207.70;;;21.10;;
75851;SDS011;64500;52.632;20.656;2023-02-28T13:18:39;195.90;;;19.30;;
75851;SDS011;64500;52.632;20.656;2023-02-28T13:21:27;236.70;;;20.50;;
75851;SDS011;64500;52.632;20.656;2023-02-28T13:23:57;173.10;;;19.10;;
75851;SDS011;64500;52.632;20.656;2023-02-28T13:29:20;190.40;;;20.60;;
75851;SDS011;64500;52.632;20.656;2023-02-28T13:40:26;165.60;;;18.70;;
75851;SDS011;64500;52.632;20.656;2023-02-28T13:42:55;131.70;;;17.50;;
75851;SDS011;64500;52.632;20.656;2023-02-28T13:45:26;136.90;;;17.10;;
75851;SDS011;64500;52.632;20.656;2023-02-28T14:01:38;143.70;;;17.90;;
75851;SDS011;64500;52.632;20.656;2023-02-28T14:07:03;149.10;;;18.10;;
75851;SDS011;64500;52.632;20.656;2023-02-28T14:09:31;112.80;;;16.20;;
75851;SDS011;64500;52.632;20.656;2023-02-28T14:21:02;141.20;;;20.50;;
75851;SDS011;64500;52.632;20.656;2023-02-28T14:38:01;134.60;;;18.20;;
75851;SDS011;64500;52.632;20.656;2023-02-28T14:40:33;179.60;;;22.60;;
75851;SDS011;64500;52.632;20.656;2023-02-28T14:43:02;146.80;;;21.70;;
75851;SDS011;64500;52.632;20.656;2023-02-28T14:45:32;176.60;;;20.70;;
75851;SDS011;64500;52.632;20.656;2023-02-28T14:48:03;184.60;;;22.70;;
75851;SDS011;64500;52.632;20.656;2023-02-28T14:50:36;218.80;;;26.20;;
75851;SDS011;64500;52.632;20.656;2023-02-28T14:53:03;206.80;;;27.50;;
75851;SDS011;64500;52.632;20.656;2023-02-28T14:55:34;205.10;;;30.50;;
75851;SDS011;64500;52.632;20.656;2023-02-28T14:58:04;225.40;;;28.40;;
75851;SDS011;64500;52.632;20.656;2023-02-28T15:00:35;196.40;;;29.20;;
75851;SDS011;64500;52.632;20.656;2023-02-28T15:03:20;414.80;;;45.30;;
75851;SDS011;64500;52.632;20.656;2023-02-28T15:06:02;331.80;;;37.30;;
75851;SDS011;64500;52.632;20.656;2023-02-28T15:08:37;301.80;;;35.00;;
75851;SDS011;64500;52.632;20.656;2023-02-28T15:11:06;275.50;;;35.30;;
75851;SDS011;64500;52.632;20.656;2023-02-28T15:16:34;267.00;;;31.30;;
75851;SDS011;64500;52.632;20.656;2023-02-28T15:19:06;284.30;;;29.00;;
75851;SDS011;64500;52.632;20.656;2023-02-28T15:21:41;238.50;;;29.20;;
75851;SDS011;64500;52.632;20.656;2023-02-28T15:26:51;193.00;;;23.50;;
75851;SDS011;64500;52.632;20.656;2023-02-28T15:29:23;178.40;;;23.60;;
75851;SDS011;64500;52.632;20.656;2023-02-28T15:31:57;154.50;;;23.20;;
75851;SDS011;64500;52.632;20.656;2023-02-28T15:34:35;152.10;;;20.80;;
75851;SDS011;64500;52.632;20.656;2023-02-28T15:39:56;159.00;;;21.60;;
75851;SDS011;64500;52.632;20.656;2023-02-28T15:42:27;176.40;;;22.40;;
75851;SDS011;64500;52.632;20.656;2023-02-28T15:44:55;148.50;;;20.00;;
75851;SDS011;64500;52.632;20.656;2023-02-28T15:47:27;152.30;;;20.60;;
75851;SDS011;64500;52.632;20.656;2023-02-28T15:49:56;141.50;;;19.90;;
75851;SDS011;64500;52.632;20.656;2023-02-28T15:55:19;151.20;;;20.30;;
75851;SDS011;64500;52.632;20.656;2023-02-28T15:57:53;119.30;;;18.60;;
75851;SDS011;64500;52.632;20.656;2023-02-28T16:00:23;129.60;;;21.10;;
75851;SDS011;64500;52.632;20.656;2023-02-28T16:02:51;166.70;;;21.70;;
75851;SDS011;64500;52.632;20.656;2023-02-28T16:05:22;180.60;;;22.40;;
75851;SDS011;64500;52.632;20.656;2023-02-28T16:08:00;192.20;;;21.70;;
75851;SDS011;64500;52.632;20.656;2023-02-28T16:10:38;146.60;;;21.10;;
75851;SDS011;64500;52.632;20.656;2023-02-28T16:13:05;153.60;;;19.90;;
75851;SDS011;64500;52.632;20.656;2023-02-28T16:15:35;134.60;;;20.90;;
75851;SDS011;64500;52.632;20.656;2023-02-28T16:18:08;153.70;;;21.00;;
75851;SDS011;64500;52.632;20.656;2023-02-28T16:20:37;165.40;;;20.50;;
75851;SDS011;64500;52.632;20.656;2023-02-28T17:10:32;14.10;;;8.60;;
75851;SDS011;64500;52.632;20.656;2023-02-28T17:12:59;15.30;;;8.40;;
75851;SDS011;64500;52.632;20.656;2023-02-28T17:15:27;15.20;;;8.40;;
75851;SDS011;64500;52.632;20.656;2023-02-28T17:17:54;16.70;;;8.90;;
75851;SDS011;64500;52.632;20.656;2023-02-28T17:20:21;16.30;;;8.70;;
75851;SDS011;64500;52.632;20.656;2023-02-28T17:22:52;17.90;;;9.30;;
75851;SDS011;64500;52.632;20.656;2023-02-28T17:25:20;17.40;;;9.40;;
75851;SDS011;64500;52.632;20.656;2023-02-28T17:27:48;16.50;;;9.00;;
75851;SDS011;64500;52.632;20.656;2023-02-28T17:30:19;16.40;;;9.20;;
75851;SDS011;64500;52.632;20.656;2023-02-28T17:32:48;18.70;;;9.80;;
75851;SDS011;64500;52.632;20.656;2023-02-28T17:35:15;21.70;;;11.40;;
75851;SDS011;64500;52.632;20.656;2023-02-28T17:37:43;24.70;;;12.20;;
75851;SDS011;64500;52.632;20.656;2023-02-28T17:40:18;22.20;;;11.90;;
75851;SDS011;64500;52.632;20.656;2023-02-28T17:42:48;21.50;;;12.00;;
75851;SDS011;64500;52.632;20.656;2023-02-28T17:45:18;22.70;;;11.50;;
75851;SDS011;64500;52.632;20.656;2023-02-28T17:47:48;23.30;;;12.80;;
75851;SDS011;64500;52.632;20.656;2023-02-28T17:50:21;25.90;;;12.90;;
75851;SDS011;64500;52.632;20.656;2023-02-28T17:52:48;25.00;;;13.30;;
75851;SDS011;64500;52.632;20.656;2023-02-28T17:55:16;30.80;;;15.00;;
75851;SDS011;64500;52.632;20.656;2023-02-28T17:57:45;27.20;;;14.80;;
75851;SDS011;64500;52.632;20.656;2023-02-28T18:00:14;27.30;;;14.20;;
75851;SDS011;64500;52.632;20.656;2023-02-28T18:02:43;27.60;;;13.50;;
75851;SDS011;64500;52.632;20.656;2023-02-28T18:05:11;29.80;;;14.50;;
75851;SDS011;64500;52.632;20.656;2023-02-28T18:07:39;28.80;;;14.40;;
75851;SDS011;64500;52.632;20.656;2023-02-28T18:10:11;28.50;;;14.90;;
75851;SDS011;64500;52.632;20.656;2023-02-28T18:12:43;28.10;;;14.60;;